createdAt,value
2023-05-05T00:00:53.412Z,37.15
2023-05-05T00:03:20.861Z,37.27
2023-05-05T00:05:49.981Z,37.26
2023-05-05T00:08:17.409Z,37.21
2023-05-05T00:10:45.371Z,37.28
2023-05-05T00:13:12.891Z,37.50
2023-05-05T00:15:41.542Z,37.54
2023-05-05T00:18:08.781Z,37.57
2023-05-05T00:20:36.189Z,37.55
2023-05-05T00:23:04.997Z,37.64
2023-05-05T00:25:32.215Z,37.63
2023-05-05T00:27:59.294Z,37.54
2023-05-05T00:30:27.174Z,37.43
2023-05-05T00:32:54.994Z,37.38
2023-05-05T00:35:22.178Z,37.34
2023-05-05T00:37:49.331Z,37.33
2023-05-05T00:40:17.784Z,37.54
2023-05-05T00:42:46.414Z,37.49
2023-05-05T00:45:15.317Z,37.48
2023-05-05T00:47:46.286Z,37.36
2023-05-05T00:50:21.906Z,37.45
2023-05-05T00:52:50.791Z,37.48
2023-05-05T00:55:19.875Z,37.41
2023-05-05T00:57:48.150Z,37.50
2023-05-05T01:00:15.593Z,37.75
2023-05-05T01:02:42.732Z,37.70
2023-05-05T01:05:10.432Z,37.68
2023-05-05T01:07:47.613Z,37.91
2023-05-05T01:10:22.697Z,37.89
2023-05-05T01:12:58.124Z,37.70
2023-05-05T01:15:33.137Z,37.84
2023-05-05T01:18:09.513Z,37.64
2023-05-05T01:20:44.789Z,37.68
2023-05-05T01:23:22.702Z,37.72
2023-05-05T01:26:08.453Z,37.55
2023-05-05T01:28:56.321Z,37.76
2023-05-05T01:31:41.656Z,37.85
2023-05-05T01:34:13.396Z,37.79
2023-05-05T01:36:44.005Z,37.76
2023-05-05T01:39:15.864Z,37.78
2023-05-05T01:41:46.991Z,37.93
2023-05-05T01:44:16.105Z,37.83
2023-05-05T01:46:44.508Z,37.90
2023-05-05T01:49:13.343Z,37.76
2023-05-05T01:51:42.220Z,38.07
2023-05-05T01:54:10.321Z,37.97
2023-05-05T01:56:40.123Z,37.87
2023-05-05T01:59:08.675Z,38.01
2023-05-05T02:01:38.546Z,37.77
2023-05-05T02:04:08.676Z,37.68
2023-05-05T02:06:37.511Z,37.69
2023-05-05T02:09:05.368Z,37.81
2023-05-05T02:11:32.986Z,37.70
2023-05-05T02:14:01.968Z,37.64
2023-05-05T02:16:29.521Z,37.83
2023-05-05T02:19:01.692Z,37.78
2023-05-05T02:21:30.303Z,37.67
2023-05-05T02:23:58.317Z,37.91
2023-05-05T02:26:25.895Z,37.89
2023-05-05T02:29:02.357Z,37.76
2023-05-05T02:31:33.137Z,37.84
2023-05-05T02:34:03.416Z,37.86
2023-05-05T02:36:37.025Z,38.04
2023-05-05T02:39:12.615Z,38.05
2023-05-05T02:41:41.323Z,38.11
2023-05-05T02:44:12.174Z,38.22
2023-05-05T02:46:39.681Z,38.02
2023-05-05T02:49:06.919Z,37.87
2023-05-05T02:51:35.322Z,37.89
2023-05-05T02:54:02.754Z,38.00
2023-05-05T02:56:39.269Z,37.85
2023-05-05T02:59:16.380Z,37.85
2023-05-05T03:01:53.987Z,38.02
2023-05-05T03:04:25.693Z,37.86
2023-05-05T03:06:57.959Z,37.88
2023-05-05T03:09:30.117Z,37.92
2023-05-05T03:12:00.906Z,38.04
2023-05-05T03:14:34.725Z,37.89
2023-05-05T03:17:03.177Z,37.91
2023-05-05T03:19:32.126Z,38.04
2023-05-05T03:22:02.779Z,38.22
2023-05-05T03:24:29.887Z,38.30
2023-05-05T03:26:56.981Z,38.24
2023-05-05T03:29:24.135Z,38.46
2023-05-05T03:31:51.386Z,38.47
2023-05-05T03:34:18.484Z,38.24
2023-05-05T03:36:45.616Z,38.13
2023-05-05T03:39:14.016Z,38.27
2023-05-05T03:41:41.080Z,38.18
2023-05-05T03:44:08.185Z,38.13
2023-05-05T03:46:35.250Z,38.15
2023-05-05T03:49:02.380Z,38.25
2023-05-05T03:51:29.481Z,38.02
2023-05-05T03:53:56.547Z,37.93
2023-05-05T03:56:24.964Z,38.64
2023-05-05T03:58:52.085Z,38.94
2023-05-05T04:01:19.187Z,47.87
2023-05-05T04:03:46.445Z,47.85
2023-05-05T04:06:13.726Z,43.14
2023-05-05T04:08:40.832Z,43.22
2023-05-05T04:11:07.955Z,42.96
2023-05-05T04:13:37.724Z,42.55
2023-05-05T04:16:05.181Z,41.72
2023-05-05T04:18:32.265Z,40.79
2023-05-05T04:20:59.371Z,40.57
2023-05-05T04:23:26.578Z,40.07
2023-05-05T04:25:53.689Z,40.14
2023-05-05T04:28:21.851Z,39.94
2023-05-05T04:30:50.602Z,39.69
2023-05-05T04:33:17.687Z,39.51
2023-05-05T04:35:44.795Z,39.49
2023-05-05T04:38:11.885Z,39.30
2023-05-05T04:40:39.333Z,39.43
2023-05-05T04:43:06.459Z,39.18
2023-05-05T04:45:33.605Z,39.08
2023-05-05T04:48:02.114Z,39.23
2023-05-05T04:50:29.237Z,39.17
2023-05-05T04:52:56.353Z,39.16
2023-05-05T04:55:23.486Z,39.43
2023-05-05T04:57:50.571Z,39.36
2023-05-05T05:00:17.864Z,39.28
2023-05-05T05:02:44.989Z,39.16
2023-05-05T05:05:13.507Z,39.21
2023-05-05T05:07:40.620Z,39.17
2023-05-05T05:10:08.780Z,39.25
2023-05-05T05:12:36.041Z,39.04
2023-05-05T05:15:03.490Z,39.03
2023-05-05T05:17:30.635Z,38.75
2023-05-05T05:19:57.902Z,38.72
2023-05-05T05:22:26.408Z,38.82
2023-05-05T05:24:53.484Z,38.78
2023-05-05T05:27:20.610Z,38.93
2023-05-05T05:29:47.687Z,38.72
2023-05-05T05:32:14.826Z,38.80
2023-05-05T05:34:41.941Z,38.58
2023-05-05T05:37:09.012Z,38.71
2023-05-05T05:39:37.426Z,38.77
2023-05-05T05:42:04.679Z,38.71
2023-05-05T05:44:31.816Z,38.78
2023-05-05T05:46:58.893Z,38.80
2023-05-05T05:49:26.135Z,38.83
2023-05-05T05:51:53.193Z,38.85
2023-05-05T05:54:20.270Z,38.72
2023-05-05T05:56:48.861Z,38.74
2023-05-05T05:59:15.991Z,38.61
2023-05-05T06:01:43.068Z,38.59
2023-05-05T06:04:10.247Z,38.65
2023-05-05T06:06:37.347Z,38.53
2023-05-05T06:09:04.481Z,38.57
2023-05-05T06:11:31.577Z,38.58
2023-05-05T06:14:00.011Z,38.63
2023-05-05T06:16:27.187Z,38.54
2023-05-05T06:18:54.473Z,38.52
2023-05-05T06:21:21.638Z,38.71
2023-05-05T06:23:48.711Z,38.71
2023-05-05T06:26:15.969Z,38.74
2023-05-05T06:28:43.021Z,38.69
2023-05-05T06:31:11.429Z,38.81
2023-05-05T06:33:38.574Z,38.74
2023-05-05T06:36:06.042Z,38.82
2023-05-05T06:38:33.159Z,38.65
2023-05-05T06:41:00.246Z,38.59
2023-05-05T06:43:28.799Z,38.55
2023-05-05T06:45:56.035Z,38.51
2023-05-05T06:48:24.466Z,38.68
2023-05-05T06:50:51.605Z,38.52
2023-05-05T06:53:18.690Z,38.39
2023-05-05T06:55:47.304Z,38.42
2023-05-05T06:58:14.383Z,38.47
2023-05-05T07:00:41.668Z,38.14
2023-05-05T07:03:09.097Z,38.55
2023-05-05T07:05:37.571Z,38.41
2023-05-05T07:08:05.053Z,38.52
2023-05-05T07:10:32.905Z,38.30
2023-05-05T07:13:00.131Z,38.32
2023-05-05T07:15:29.335Z,38.49
2023-05-05T07:17:57.081Z,38.51
2023-05-05T07:20:24.671Z,38.66
2023-05-05T07:22:53.158Z,38.66
2023-05-05T07:25:20.786Z,38.60
2023-05-05T07:27:47.939Z,38.58
2023-05-05T07:30:18.438Z,38.35
2023-05-05T07:32:46.727Z,38.29
2023-05-05T07:35:13.983Z,38.36
2023-05-05T07:37:41.083Z,38.45
2023-05-05T07:40:10.605Z,38.31
2023-05-05T07:42:38.009Z,38.23
2023-05-05T07:45:06.497Z,38.46
2023-05-05T07:47:33.690Z,38.46
2023-05-05T07:50:01.380Z,38.32
2023-05-05T07:52:44.213Z,38.31
2023-05-05T07:55:13.337Z,38.40
2023-05-05T07:57:40.450Z,38.27
2023-05-05T08:00:08.706Z,38.32
2023-05-05T08:02:36.024Z,38.46
2023-05-05T08:05:03.352Z,38.43
2023-05-05T08:07:30.567Z,38.53
2023-05-05T08:09:57.696Z,38.62
2023-05-05T08:12:26.684Z,38.43
2023-05-05T08:14:53.769Z,38.53
2023-05-05T08:17:20.948Z,38.28
2023-05-05T08:19:51.798Z,38.44
2023-05-05T08:22:18.907Z,38.32
2023-05-05T08:24:46.010Z,38.28
2023-05-05T08:27:13.157Z,38.40
2023-05-05T08:29:41.580Z,38.47
2023-05-05T08:32:08.699Z,38.58
2023-05-05T08:34:35.765Z,38.36
2023-05-05T08:37:02.846Z,38.42
2023-05-05T08:39:30.055Z,38.50
2023-05-05T08:41:57.658Z,38.40
2023-05-05T08:44:24.859Z,38.42
2023-05-05T08:46:54.114Z,38.39
2023-05-05T08:49:22.492Z,38.49
2023-05-05T08:51:52.044Z,38.55
2023-05-05T08:54:20.418Z,38.55
2023-05-05T08:56:49.931Z,38.52
2023-05-05T08:59:18.753Z,38.51
2023-05-05T09:01:46.900Z,38.66
2023-05-05T09:04:16.106Z,38.65
2023-05-05T09:06:43.264Z,38.46
2023-05-05T09:09:10.456Z,38.40
2023-05-05T09:11:39.068Z,38.46
2023-05-05T09:14:06.185Z,38.53
2023-05-05T09:16:33.351Z,38.30
2023-05-05T09:19:03.737Z,38.57
2023-05-05T09:21:32.196Z,38.52
2023-05-05T09:24:09.151Z,38.52
2023-05-05T09:26:38.548Z,38.44
2023-05-05T09:29:06.044Z,38.61
2023-05-05T09:31:34.748Z,38.65
2023-05-05T09:34:13.033Z,38.58
2023-05-05T09:36:46.519Z,38.62
2023-05-05T09:39:14.053Z,38.69
2023-05-05T09:41:42.375Z,38.81
2023-05-05T09:44:10.545Z,38.86
2023-05-05T09:46:37.679Z,38.65
2023-05-05T09:49:12.403Z,38.61
2023-05-05T09:51:39.581Z,38.51
2023-05-05T09:54:08.139Z,38.58
2023-05-05T09:56:39.458Z,38.38
2023-05-05T09:59:10.231Z,38.62
2023-05-05T10:01:38.123Z,38.65
2023-05-05T10:04:05.468Z,38.67
2023-05-05T10:06:44.211Z,38.68
2023-05-05T10:09:12.961Z,38.52
2023-05-05T10:11:41.739Z,38.34
2023-05-05T10:14:12.834Z,38.52
2023-05-05T10:16:45.924Z,38.42
2023-05-05T10:19:15.333Z,38.49
2023-05-05T10:21:47.080Z,38.57
2023-05-05T10:24:24.135Z,38.78
2023-05-05T10:26:53.058Z,38.73
2023-05-05T10:29:31.820Z,38.56
2023-05-05T10:32:18.849Z,38.54
2023-05-05T10:34:53.146Z,38.75
2023-05-05T10:37:21.320Z,38.97
2023-05-05T10:39:51.519Z,38.66
2023-05-05T10:42:19.454Z,39.38
2023-05-05T10:44:46.628Z,38.76
2023-05-05T10:47:14.264Z,38.87
2023-05-05T10:49:47.633Z,39.07
2023-05-05T10:52:23.404Z,38.86
2023-05-05T10:55:01.361Z,38.52
2023-05-05T10:57:29.373Z,38.80
2023-05-05T10:59:56.435Z,38.78
2023-05-05T11:02:25.454Z,38.67
2023-05-05T11:05:10.594Z,38.70
2023-05-05T11:07:37.919Z,38.67
2023-05-05T11:10:08.502Z,38.94
2023-05-05T11:13:13.364Z,39.69
2023-05-05T11:15:40.689Z,39.43
2023-05-05T11:18:08.371Z,39.06
2023-05-05T11:21:12.061Z,39.00
2023-05-05T11:23:39.171Z,39.17
2023-05-05T11:26:07.750Z,39.27
2023-05-05T11:28:34.945Z,39.24
2023-05-05T11:31:17.021Z,38.86
2023-05-05T11:33:44.322Z,38.87
2023-05-05T11:36:13.010Z,38.84
2023-05-05T11:39:18.360Z,38.82
2023-05-05T11:42:02.290Z,38.84
2023-05-05T11:44:31.849Z,38.68
2023-05-05T11:47:25.957Z,38.57
2023-05-05T11:49:53.230Z,38.87
2023-05-05T11:52:20.312Z,38.70
2023-05-05T11:54:47.912Z,38.60
2023-05-05T11:57:17.841Z,38.74
2023-05-05T11:59:54.837Z,39.04
2023-05-05T12:02:23.233Z,38.97
2023-05-05T12:04:51.466Z,38.86
2023-05-05T12:07:20.273Z,38.91
2023-05-05T12:09:48.605Z,38.93
2023-05-05T12:12:17.629Z,38.74
2023-05-05T12:14:46.042Z,38.70
2023-05-05T12:17:13.399Z,38.39
2023-05-05T12:19:47.721Z,38.43
2023-05-05T12:22:22.178Z,38.13
2023-05-05T12:24:54.940Z,38.22
2023-05-05T12:27:24.455Z,37.99
2023-05-05T12:29:52.300Z,38.34
2023-05-05T12:32:21.466Z,38.72
2023-05-05T12:34:49.844Z,38.91
2023-05-05T12:37:17.577Z,38.62
2023-05-05T12:39:44.974Z,38.55
2023-05-05T12:42:12.216Z,38.76
2023-05-05T12:44:40.787Z,39.06
2023-05-05T12:47:08.346Z,38.66
2023-05-05T12:49:45.744Z,38.94
2023-05-05T12:52:12.892Z,38.78
2023-05-05T12:54:55.076Z,38.92
2023-05-05T12:57:22.663Z,38.95
2023-05-05T12:59:51.613Z,38.75
2023-05-05T13:02:19.474Z,38.78
2023-05-05T13:04:51.324Z,38.55
2023-05-05T13:07:19.546Z,38.65
2023-05-05T13:09:47.894Z,38.36
2023-05-05T13:12:17.034Z,38.59
2023-05-05T13:14:44.288Z,38.56
2023-05-05T13:17:13.263Z,38.61
2023-05-05T13:19:40.771Z,38.38
2023-05-05T13:22:08.918Z,38.48
2023-05-05T13:24:47.161Z,38.46
2023-05-05T13:27:18.534Z,38.46
2023-05-05T13:29:45.697Z,38.76
2023-05-05T13:32:14.124Z,39.01
2023-05-05T13:34:41.317Z,38.80
2023-05-05T13:37:08.414Z,38.69
2023-05-05T13:39:35.554Z,38.85
2023-05-05T13:42:02.804Z,38.73
2023-05-05T13:44:29.956Z,38.67
2023-05-05T13:46:57.200Z,38.87
2023-05-05T13:49:25.716Z,38.90
2023-05-05T13:51:52.827Z,38.67
2023-05-05T13:54:19.917Z,38.63
2023-05-05T13:56:47.285Z,38.58
2023-05-05T13:59:14.371Z,38.45
2023-05-05T14:01:41.644Z,38.87
2023-05-05T14:04:08.780Z,38.52
2023-05-05T14:06:37.272Z,38.67
2023-05-05T14:09:04.351Z,38.50
2023-05-05T14:11:32.144Z,38.64
2023-05-05T14:13:59.228Z,38.53
2023-05-05T14:16:26.370Z,38.89
2023-05-05T14:18:53.521Z,38.56
2023-05-05T14:21:20.590Z,38.55
2023-05-05T14:23:49.008Z,38.41
2023-05-05T14:26:16.143Z,38.45
2023-05-05T14:28:43.338Z,38.86
2023-05-05T14:31:10.405Z,38.90
2023-05-05T14:33:37.537Z,38.40
2023-05-05T14:36:05.253Z,38.73
2023-05-05T14:38:32.388Z,38.50
2023-05-05T14:41:01.026Z,38.37
2023-05-05T14:43:28.111Z,38.59
2023-05-05T14:45:55.273Z,38.59
2023-05-05T14:48:22.685Z,38.64
2023-05-05T14:50:49.972Z,38.92
2023-05-05T14:53:17.197Z,38.60
2023-05-05T14:55:44.349Z,38.88
2023-05-05T14:58:12.761Z,39.17
2023-05-05T15:00:39.869Z,38.88
2023-05-05T15:03:07.155Z,39.01
2023-05-05T15:05:34.306Z,39.01
2023-05-05T15:08:01.378Z,39.01
2023-05-05T15:10:28.488Z,38.76
2023-05-05T15:12:55.639Z,38.61
2023-05-05T15:15:24.073Z,38.73
2023-05-05T15:17:51.202Z,38.72
2023-05-05T15:20:18.318Z,38.90
2023-05-05T15:22:45.446Z,38.77
2023-05-05T15:25:12.732Z,39.45
2023-05-05T15:27:39.969Z,41.40
2023-05-05T15:30:07.841Z,41.68
2023-05-05T15:32:36.337Z,42.14
2023-05-05T15:35:03.659Z,50.03
2023-05-05T15:37:30.795Z,47.16
2023-05-05T15:39:58.205Z,52.77
2023-05-05T15:42:25.609Z,57.06
2023-05-05T15:44:52.761Z,48.48
2023-05-05T15:47:19.844Z,46.86
2023-05-05T15:49:49.813Z,48.54
2023-05-05T15:52:17.085Z,44.52
2023-05-05T15:54:44.228Z,42.45
2023-05-05T15:57:11.355Z,41.47
2023-05-05T15:59:38.481Z,41.21
2023-05-05T16:02:05.670Z,41.54
2023-05-05T16:04:32.791Z,41.00
2023-05-05T16:07:01.224Z,40.71
2023-05-05T16:09:28.692Z,40.89
2023-05-05T16:11:55.829Z,40.77
2023-05-05T16:14:23.239Z,40.77
2023-05-05T16:16:50.360Z,40.86
2023-05-05T16:19:17.444Z,40.97
2023-05-05T16:21:44.652Z,40.79
2023-05-05T16:24:13.100Z,40.72
2023-05-05T16:26:40.174Z,40.93
2023-05-05T16:29:07.564Z,40.92
2023-05-05T16:31:35.088Z,41.18
2023-05-05T16:34:02.544Z,41.19
2023-05-05T16:36:29.661Z,41.04
2023-05-05T16:38:56.793Z,41.03
2023-05-05T16:41:25.618Z,41.07
2023-05-05T16:43:52.728Z,41.23
2023-05-05T16:46:19.992Z,41.20
2023-05-05T16:48:47.621Z,41.46
2023-05-05T16:51:14.754Z,41.47
2023-05-05T16:53:41.868Z,41.17
2023-05-05T16:56:11.480Z,41.25
2023-05-05T16:58:40.438Z,41.72
2023-05-05T17:01:07.592Z,42.15
2023-05-05T17:03:34.951Z,42.28
2023-05-05T17:06:02.146Z,42.43
2023-05-05T17:08:29.274Z,42.47
2023-05-05T17:10:56.361Z,42.39
2023-05-05T17:13:23.703Z,42.76
2023-05-05T17:15:52.304Z,42.75
2023-05-05T17:18:19.581Z,42.76
2023-05-05T17:20:46.701Z,42.79
2023-05-05T17:23:13.877Z,42.88
2023-05-05T17:25:40.998Z,43.17
2023-05-05T17:28:08.074Z,42.91
2023-05-05T17:30:35.161Z,43.23
2023-05-05T17:33:03.712Z,43.55
2023-05-05T17:35:30.852Z,43.69
2023-05-05T17:37:57.955Z,44.55
2023-05-05T17:40:25.076Z,44.78
2023-05-05T17:42:52.158Z,43.66
2023-05-05T17:45:19.277Z,43.35
2023-05-05T17:47:46.385Z,44.02
2023-05-05T17:50:14.853Z,42.93
2023-05-05T17:52:41.986Z,42.92
2023-05-05T17:55:09.856Z,42.90
2023-05-05T17:57:37.340Z,42.55
2023-05-05T18:00:05.582Z,42.58
2023-05-05T18:02:34.716Z,42.55
2023-05-05T18:05:02.164Z,42.47
2023-05-05T18:07:30.671Z,42.06
2023-05-05T18:09:57.813Z,42.24
2023-05-05T18:12:24.936Z,42.39
2023-05-05T18:14:52.100Z,42.52
2023-05-05T18:17:19.187Z,42.34
2023-05-05T18:19:48.914Z,42.73
2023-05-05T18:22:16.635Z,42.78
2023-05-05T18:24:45.702Z,42.99
2023-05-05T18:27:13.023Z,42.91
2023-05-05T18:29:40.132Z,43.13
2023-05-05T18:32:07.309Z,42.86
2023-05-05T18:34:34.504Z,43.08
2023-05-05T18:37:01.915Z,42.70
2023-05-05T18:39:29.045Z,42.88
2023-05-05T18:41:57.501Z,42.60
2023-05-05T18:44:24.699Z,42.49
2023-05-05T18:46:51.818Z,42.19
2023-05-05T18:49:18.923Z,42.19
2023-05-05T18:51:46.026Z,41.92
2023-05-05T18:54:13.140Z,42.21
2023-05-05T18:56:40.255Z,42.26
2023-05-05T18:59:08.738Z,41.93
2023-05-05T19:01:35.832Z,41.88
2023-05-05T19:04:03.041Z,41.92
2023-05-05T19:06:30.217Z,42.00
2023-05-05T19:08:57.510Z,41.97
2023-05-05T19:11:24.694Z,42.12
2023-05-05T19:13:51.809Z,42.42
2023-05-05T19:16:20.400Z,42.44
2023-05-05T19:18:47.539Z,42.36
2023-05-05T19:21:14.792Z,42.56
2023-05-05T19:23:41.883Z,42.41
2023-05-05T19:26:09.495Z,42.43
2023-05-05T19:28:36.725Z,42.61
2023-05-05T19:31:03.801Z,42.23
2023-05-05T19:33:32.220Z,42.49
2023-05-05T19:35:59.322Z,42.15
2023-05-05T19:38:26.408Z,42.59
2023-05-05T19:40:53.528Z,42.74
2023-05-05T19:43:20.634Z,42.78
2023-05-05T19:45:47.723Z,42.69
2023-05-05T19:48:14.814Z,42.83
2023-05-05T19:50:43.281Z,42.89
2023-05-05T19:53:10.371Z,42.66
2023-05-05T19:55:37.463Z,43.06
2023-05-05T19:58:04.589Z,43.85
2023-05-05T20:00:31.716Z,43.62
2023-05-05T20:02:58.829Z,43.96
2023-05-05T20:05:25.989Z,43.73
2023-05-05T20:07:54.420Z,43.40
2023-05-05T20:10:21.522Z,43.47
2023-05-05T20:12:48.719Z,43.15
2023-05-05T20:15:16.725Z,49.53
2023-05-05T20:17:44.339Z,46.76
2023-05-05T20:20:12.345Z,45.42
2023-05-05T20:22:40.601Z,44.94
2023-05-05T20:25:09.680Z,44.96
2023-05-05T20:27:37.658Z,44.76
2023-05-05T20:30:06.020Z,44.67
2023-05-05T20:32:33.216Z,44.55
2023-05-05T20:35:00.363Z,44.50
2023-05-05T20:37:27.519Z,44.22
2023-05-05T20:39:54.594Z,44.13
2023-05-05T20:42:23.065Z,44.13
2023-05-05T20:44:50.181Z,44.04
2023-05-05T20:47:17.274Z,43.95
2023-05-05T20:49:44.389Z,44.00
2023-05-05T20:52:11.479Z,43.94
2023-05-05T20:54:38.582Z,43.83
2023-05-05T20:57:07.139Z,43.49
2023-05-05T20:59:35.573Z,43.65
2023-05-05T21:02:02.713Z,43.64
2023-05-05T21:04:30.177Z,44.04
2023-05-05T21:06:57.272Z,44.14
2023-05-05T21:09:24.540Z,43.88
2023-05-05T21:11:51.673Z,43.81
2023-05-05T21:14:18.799Z,44.22
2023-05-05T21:16:47.282Z,44.17
2023-05-05T21:19:14.421Z,44.20
2023-05-05T21:21:41.546Z,43.93
2023-05-05T21:24:08.737Z,44.43
2023-05-05T21:26:35.848Z,44.27
2023-05-05T21:29:02.949Z,44.46
2023-05-05T21:31:30.053Z,44.32
2023-05-05T21:33:58.533Z,44.57
2023-05-05T21:36:25.702Z,44.42
2023-05-05T21:38:53.337Z,44.26
2023-05-05T21:41:20.634Z,44.54
2023-05-05T21:43:47.716Z,44.20
2023-05-05T21:46:14.848Z,44.26
2023-05-05T21:48:41.954Z,44.12
2023-05-05T21:51:10.372Z,44.26
2023-05-05T21:53:37.450Z,44.15
2023-05-05T21:56:06.328Z,44.21
2023-05-05T21:58:33.407Z,44.22
2023-05-05T22:01:00.505Z,44.27
2023-05-05T22:03:27.669Z,44.31
2023-05-05T22:05:54.797Z,44.06
2023-05-05T22:08:23.260Z,44.52
2023-05-05T22:10:50.358Z,44.45
2023-05-05T22:13:17.564Z,44.47
2023-05-05T22:15:47.261Z,44.55
2023-05-05T22:18:14.800Z,44.63
2023-05-05T22:20:41.984Z,44.61
2023-05-05T22:23:09.068Z,44.36
2023-05-05T22:25:37.489Z,44.38
2023-05-05T22:28:04.691Z,44.04
2023-05-05T22:30:31.865Z,43.97
2023-05-05T22:32:59.021Z,44.22
2023-05-05T22:35:26.195Z,43.94
2023-05-05T22:37:53.308Z,43.98
2023-05-05T22:40:20.472Z,44.27
2023-05-05T22:42:48.963Z,43.96
2023-05-05T22:45:16.298Z,43.97
2023-05-05T22:47:43.458Z,43.61
2023-05-05T22:50:11.048Z,43.98
2023-05-05T22:52:38.137Z,43.96
2023-05-05T22:55:05.886Z,44.15
2023-05-05T22:57:34.757Z,44.17
2023-05-05T23:00:05.041Z,44.52
2023-05-05T23:02:32.203Z,44.42
2023-05-05T23:04:59.311Z,44.25
2023-05-05T23:07:26.484Z,44.01
2023-05-05T23:09:53.717Z,43.75
2023-05-05T23:12:20.801Z,43.65
2023-05-05T23:14:47.910Z,43.55
2023-05-05T23:17:16.436Z,43.56
2023-05-05T23:19:46.824Z,43.65
2023-05-05T23:22:13.910Z,43.34
2023-05-05T23:24:41.206Z,43.56
2023-05-05T23:27:08.313Z,43.40
2023-05-05T23:29:35.436Z,43.58
2023-05-05T23:32:02.544Z,43.56
2023-05-05T23:34:30.959Z,43.64
2023-05-05T23:36:58.056Z,43.73
2023-05-05T23:39:25.167Z,43.84
2023-05-05T23:41:52.276Z,43.77
2023-05-05T23:44:19.370Z,43.94
2023-05-05T23:46:46.486Z,43.75
2023-05-05T23:49:13.620Z,43.93
2023-05-05T23:51:42.022Z,43.74
2023-05-05T23:54:09.142Z,43.43
2023-05-05T23:56:36.223Z,43.88
2023-05-05T23:59:03.313Z,43.41
